sensor_id;sensor_type;location;lat;lon;timestamp;P1;durP1;ratioP1;P2;durP2;ratioP2
21101;SDS011;10709;49.006;12.100;2023-02-22T00:01:33;11.20;;;7.17;;
21101;SDS011;10709;49.006;12.100;2023-02-22T00:04:01;14.03;;;9.10;;
21101;SDS011;10709;49.006;12.100;2023-02-22T00:06:30;13.53;;;8.00;;
21101;SDS011;10709;49.006;12.100;2023-02-22T00:08:57;12.23;;;7.60;;
21101;SDS011;10709;49.006;12.100;2023-02-22T00:11:24;12.00;;;8.10;;
21101;SDS011;10709;49.006;12.100;2023-02-22T00:13:51;13.03;;;7.90;;
21101;SDS011;10709;49.006;12.100;2023-02-22T00:16:23;11.30;;;7.83;;
21101;SDS011;10709;49.006;12.100;2023-02-22T00:18:50;12.30;;;8.17;;
21101;SDS011;10709;49.006;12.100;2023-02-22T00:21:18;11.83;;;8.13;;
21101;SDS011;10709;49.006;12.100;2023-02-22T00:23:46;13.30;;;8.20;;
21101;SDS011;10709;49.006;12.100;2023-02-22T00:26:18;11.23;;;8.17;;
21101;SDS011;10709;49.006;12.100;2023-02-22T00:28:46;13.77;;;8.60;;
21101;SDS011;10709;49.006;12.100;2023-02-22T00:31:14;14.70;;;9.07;;
21101;SDS011;10709;49.006;12.100;2023-02-22T00:33:42;15.37;;;7.90;;
21101;SDS011;10709;49.006;12.100;2023-02-22T00:36:09;17.87;;;9.70;;
21101;SDS011;10709;49.006;12.100;2023-02-22T00:38:37;12.43;;;8.00;;
21101;SDS011;10709;49.006;12.100;2023-02-22T00:41:04;12.83;;;8.00;;
21101;SDS011;10709;49.006;12.100;2023-02-22T00:43:31;12.13;;;8.17;;
21101;SDS011;10709;49.006;12.100;2023-02-22T00:45:57;11.13;;;8.07;;
21101;SDS011;10709;49.006;12.100;2023-02-22T00:48:24;10.83;;;7.10;;
21101;SDS011;10709;49.006;12.100;2023-02-22T00:50:50;11.20;;;7.27;;
21101;SDS011;10709;49.006;12.100;2023-02-22T00:53:21;11.40;;;7.07;;
21101;SDS011;10709;49.006;12.100;2023-02-22T00:55:48;11.13;;;7.03;;
21101;SDS011;10709;49.006;12.100;2023-02-22T00:58:15;10.47;;;6.70;;
21101;SDS011;10709;49.006;12.100;2023-02-22T01:00:43;10.37;;;7.10;;
21101;SDS011;10709;49.006;12.100;2023-02-22T01:03:11;11.17;;;7.00;;
21101;SDS011;10709;49.006;12.100;2023-02-22T01:05:39;9.90;;;6.57;;
21101;SDS011;10709;49.006;12.100;2023-02-22T01:08:07;10.13;;;6.60;;
21101;SDS011;10709;49.006;12.100;2023-02-22T01:10:35;10.83;;;6.97;;
21101;SDS011;10709;49.006;12.100;2023-02-22T01:13:04;11.37;;;6.90;;
21101;SDS011;10709;49.006;12.100;2023-02-22T01:15:35;11.93;;;7.17;;
21101;SDS011;10709;49.006;12.100;2023-02-22T01:18:03;12.90;;;7.43;;
21101;SDS011;10709;49.006;12.100;2023-02-22T01:20:30;12.63;;;7.87;;
21101;SDS011;10709;49.006;12.100;2023-02-22T01:22:59;11.50;;;7.27;;
21101;SDS011;10709;49.006;12.100;2023-02-22T01:25:29;11.30;;;7.60;;
21101;SDS011;10709;49.006;12.100;2023-02-22T01:27:57;12.67;;;7.67;;
21101;SDS011;10709;49.006;12.100;2023-02-22T01:30:26;12.03;;;7.77;;
21101;SDS011;10709;49.006;12.100;2023-02-22T01:32:54;13.23;;;8.07;;
21101;SDS011;10709;49.006;12.100;2023-02-22T01:35:23;12.27;;;7.37;;
21101;SDS011;10709;49.006;12.100;2023-02-22T01:37:56;12.37;;;7.50;;
21101;SDS011;10709;49.006;12.100;2023-02-22T01:40:26;11.77;;;7.70;;
21101;SDS011;10709;49.006;12.100;2023-02-22T01:42:56;10.87;;;7.43;;
21101;SDS011;10709;49.006;12.100;2023-02-22T01:48:00;11.83;;;7.57;;
21101;SDS011;10709;49.006;12.100;2023-02-22T01:53:32;18.77;;;11.57;;
21101;SDS011;10709;49.006;12.100;2023-02-22T01:56:02;16.33;;;10.30;;
21101;SDS011;10709;49.006;12.100;2023-02-22T01:58:30;14.83;;;9.57;;
21101;SDS011;10709;49.006;12.100;2023-02-22T02:01:00;14.27;;;8.87;;
21101;SDS011;10709;49.006;12.100;2023-02-22T02:03:28;12.53;;;8.30;;
21101;SDS011;10709;49.006;12.100;2023-02-22T02:05:58;15.47;;;9.50;;
21101;SDS011;10709;49.006;12.100;2023-02-22T02:09:10;10.33;;;7.20;;
21101;SDS011;10709;49.006;12.100;2023-02-22T02:11:38;11.83;;;7.40;;
21101;SDS011;10709;49.006;12.100;2023-02-22T02:14:07;11.13;;;7.10;;
21101;SDS011;10709;49.006;12.100;2023-02-22T02:16:39;11.20;;;7.47;;
21101;SDS011;10709;49.006;12.100;2023-02-22T02:33:24;10.63;;;7.07;;
21101;SDS011;10709;49.006;12.100;2023-02-22T02:35:56;10.23;;;6.80;;
21101;SDS011;10709;49.006;12.100;2023-02-22T02:38:31;9.87;;;6.60;;
21101;SDS011;10709;49.006;12.100;2023-02-22T02:43:50;9.93;;;6.60;;
21101;SDS011;10709;49.006;12.100;2023-02-22T02:46:32;8.70;;;6.13;;
21101;SDS011;10709;49.006;12.100;2023-02-22T02:49:03;9.87;;;6.40;;
21101;SDS011;10709;49.006;12.100;2023-02-22T02:51:33;9.90;;;6.77;;
21101;SDS011;10709;49.006;12.100;2023-02-22T02:54:04;12.07;;;6.83;;
21101;SDS011;10709;49.006;12.100;2023-02-22T02:56:32;11.67;;;6.63;;
21101;SDS011;10709;49.006;12.100;2023-02-22T02:58:59;11.63;;;6.90;;
21101;SDS011;10709;49.006;12.100;2023-02-22T03:12:02;11.50;;;6.93;;
21101;SDS011;10709;49.006;12.100;2023-02-22T03:14:51;15.27;;;7.13;;
21101;SDS011;10709;49.006;12.100;2023-02-22T03:17:31;10.77;;;6.87;;
21101;SDS011;10709;49.006;12.100;2023-02-22T03:20:11;9.57;;;6.80;;
21101;SDS011;10709;49.006;12.100;2023-02-22T03:23:05;10.33;;;7.17;;
21101;SDS011;10709;49.006;12.100;2023-02-22T03:25:45;9.43;;;6.70;;
21101;SDS011;10709;49.006;12.100;2023-02-22T03:28:16;11.43;;;6.80;;
21101;SDS011;10709;49.006;12.100;2023-02-22T03:30:47;9.53;;;7.20;;
21101;SDS011;10709;49.006;12.100;2023-02-22T03:33:20;10.20;;;6.27;;
21101;SDS011;10709;49.006;12.100;2023-02-22T03:36:01;9.87;;;6.50;;
21101;SDS011;10709;49.006;12.100;2023-02-22T03:38:32;9.23;;;6.43;;
21101;SDS011;10709;49.006;12.100;2023-02-22T03:41:02;10.90;;;6.87;;
21101;SDS011;10709;49.006;12.100;2023-02-22T03:43:33;10.17;;;6.70;;
21101;SDS011;10709;49.006;12.100;2023-02-22T03:46:05;10.70;;;6.77;;
21101;SDS011;10709;49.006;12.100;2023-02-22T03:51:19;10.97;;;6.60;;
21101;SDS011;10709;49.006;12.100;2023-02-22T03:53:46;9.90;;;6.83;;
21101;SDS011;10709;49.006;12.100;2023-02-22T03:56:15;11.47;;;6.80;;
21101;SDS011;10709;49.006;12.100;2023-02-22T03:58:47;9.07;;;6.50;;
21101;SDS011;10709;49.006;12.100;2023-02-22T04:01:15;11.87;;;7.13;;
21101;SDS011;10709;49.006;12.100;2023-02-22T04:03:43;10.80;;;6.73;;
21101;SDS011;10709;49.006;12.100;2023-02-22T04:06:09;9.83;;;6.60;;
21101;SDS011;10709;49.006;12.100;2023-02-22T04:08:36;10.23;;;6.83;;
21101;SDS011;10709;49.006;12.100;2023-02-22T04:11:02;8.13;;;6.53;;
21101;SDS011;10709;49.006;12.100;2023-02-22T04:13:29;8.80;;;6.40;;
21101;SDS011;10709;49.006;12.100;2023-02-22T04:15:55;8.57;;;6.80;;
21101;SDS011;10709;49.006;12.100;2023-02-22T04:18:22;10.13;;;6.60;;
21101;SDS011;10709;49.006;12.100;2023-02-22T04:20:48;9.00;;;6.80;;
21101;SDS011;10709;49.006;12.100;2023-02-22T04:23:15;9.00;;;6.40;;
21101;SDS011;10709;49.006;12.100;2023-02-22T04:25:42;9.13;;;6.23;;
21101;SDS011;10709;49.006;12.100;2023-02-22T04:28:08;9.97;;;6.00;;
21101;SDS011;10709;49.006;12.100;2023-02-22T04:30:35;9.93;;;6.43;;
21101;SDS011;10709;49.006;12.100;2023-02-22T04:33:01;9.77;;;6.43;;
21101;SDS011;10709;49.006;12.100;2023-02-22T04:35:28;9.03;;;6.23;;
21101;SDS011;10709;49.006;12.100;2023-02-22T04:37:54;11.40;;;6.83;;
21101;SDS011;10709;49.006;12.100;2023-02-22T04:40:21;10.80;;;6.80;;
21101;SDS011;10709;49.006;12.100;2023-02-22T04:42:47;9.07;;;6.03;;
21101;SDS011;10709;49.006;12.100;2023-02-22T04:45:14;11.13;;;7.13;;
21101;SDS011;10709;49.006;12.100;2023-02-22T04:47:40;10.30;;;7.17;;
21101;SDS011;10709;49.006;12.100;2023-02-22T04:50:08;11.97;;;7.73;;
21101;SDS011;10709;49.006;12.100;2023-02-22T04:52:36;11.83;;;7.97;;
21101;SDS011;10709;49.006;12.100;2023-02-22T04:55:03;12.17;;;8.40;;
21101;SDS011;10709;49.006;12.100;2023-02-22T04:57:30;13.00;;;9.00;;
21101;SDS011;10709;49.006;12.100;2023-02-22T04:59:56;11.40;;;7.80;;
21101;SDS011;10709;49.006;12.100;2023-02-22T05:02:23;12.13;;;8.40;;
21101;SDS011;10709;49.006;12.100;2023-02-22T05:04:50;12.70;;;8.53;;
21101;SDS011;10709;49.006;12.100;2023-02-22T05:07:16;11.67;;;8.17;;
21101;SDS011;10709;49.006;12.100;2023-02-22T05:09:43;13.47;;;8.17;;
21101;SDS011;10709;49.006;12.100;2023-02-22T05:12:10;10.23;;;7.77;;
21101;SDS011;10709;49.006;12.100;2023-02-22T05:14:36;11.83;;;8.30;;
21101;SDS011;10709;49.006;12.100;2023-02-22T05:17:03;11.63;;;7.73;;
21101;SDS011;10709;49.006;12.100;2023-02-22T05:19:30;13.77;;;8.60;;
21101;SDS011;10709;49.006;12.100;2023-02-22T05:21:56;16.87;;;9.37;;
21101;SDS011;10709;49.006;12.100;2023-02-22T05:24:22;19.77;;;9.50;;
21101;SDS011;10709;49.006;12.100;2023-02-22T05:26:49;19.50;;;9.53;;
21101;SDS011;10709;49.006;12.100;2023-02-22T05:29:18;16.37;;;8.73;;
21101;SDS011;10709;49.006;12.100;2023-02-22T05:31:46;26.43;;;11.57;;
21101;SDS011;10709;49.006;12.100;2023-02-22T05:34:12;24.47;;;11.40;;
21101;SDS011;10709;49.006;12.100;2023-02-22T05:36:39;20.80;;;10.17;;
21101;SDS011;10709;49.006;12.100;2023-02-22T05:39:06;30.33;;;12.13;;
21101;SDS011;10709;49.006;12.100;2023-02-22T05:41:33;18.87;;;10.27;;
21101;SDS011;10709;49.006;12.100;2023-02-22T05:43:59;25.67;;;9.97;;
21101;SDS011;10709;49.006;12.100;2023-02-22T05:46:28;28.93;;;10.73;;
21101;SDS011;10709;49.006;12.100;2023-02-22T05:48:54;14.67;;;9.07;;
21101;SDS011;10709;49.006;12.100;2023-02-22T05:51:21;35.63;;;12.07;;
21101;SDS011;10709;49.006;12.100;2023-02-22T05:53:48;19.37;;;11.10;;
21101;SDS011;10709;49.006;12.100;2023-02-22T05:56:21;20.10;;;10.60;;
21101;SDS011;10709;49.006;12.100;2023-02-22T05:58:48;16.73;;;10.07;;
21101;SDS011;10709;49.006;12.100;2023-02-22T06:01:15;23.20;;;11.93;;
21101;SDS011;10709;49.006;12.100;2023-02-22T06:03:44;18.57;;;9.73;;
21101;SDS011;10709;49.006;12.100;2023-02-22T06:06:12;14.70;;;9.83;;
21101;SDS011;10709;49.006;12.100;2023-02-22T06:08:39;26.20;;;11.90;;
21101;SDS011;10709;49.006;12.100;2023-02-22T06:11:06;54.23;;;15.83;;
21101;SDS011;10709;49.006;12.100;2023-02-22T06:13:35;19.50;;;11.73;;
21101;SDS011;10709;49.006;12.100;2023-02-22T06:16:02;24.27;;;12.00;;
21101;SDS011;10709;49.006;12.100;2023-02-22T06:18:29;22.93;;;12.67;;
21101;SDS011;10709;49.006;12.100;2023-02-22T06:20:56;23.70;;;11.30;;
21101;SDS011;10709;49.006;12.100;2023-02-22T06:23:23;23.43;;;10.90;;
21101;SDS011;10709;49.006;12.100;2023-02-22T06:25:51;39.53;;;12.47;;
21101;SDS011;10709;49.006;12.100;2023-02-22T06:28:18;21.77;;;11.93;;
21101;SDS011;10709;49.006;12.100;2023-02-22T06:30:45;18.47;;;11.20;;
21101;SDS011;10709;49.006;12.100;2023-02-22T06:33:11;23.60;;;12.17;;
21101;SDS011;10709;49.006;12.100;2023-02-22T06:35:38;61.70;;;15.97;;
21101;SDS011;10709;49.006;12.100;2023-02-22T06:38:05;35.00;;;13.00;;
21101;SDS011;10709;49.006;12.100;2023-02-22T06:40:32;31.70;;;12.13;;
21101;SDS011;10709;49.006;12.100;2023-02-22T06:42:59;42.23;;;14.70;;
21101;SDS011;10709;49.006;12.100;2023-02-22T06:45:25;20.00;;;12.83;;
21101;SDS011;10709;49.006;12.100;2023-02-22T06:47:52;55.10;;;12.20;;
21101;SDS011;10709;49.006;12.100;2023-02-22T06:50:26;17.83;;;10.27;;
21101;SDS011;10709;49.006;12.100;2023-02-22T06:52:55;21.70;;;12.93;;
21101;SDS011;10709;49.006;12.100;2023-02-22T06:55:23;18.43;;;12.13;;
21101;SDS011;10709;49.006;12.100;2023-02-22T06:57:52;110.90;;;15.87;;
21101;SDS011;10709;49.006;12.100;2023-02-22T07:00:19;21.10;;;11.40;;
21101;SDS011;10709;49.006;12.100;2023-02-22T07:02:48;83.70;;;15.37;;
21101;SDS011;10709;49.006;12.100;2023-02-22T07:05:16;20.40;;;11.63;;
21101;SDS011;10709;49.006;12.100;2023-02-22T07:07:44;23.73;;;11.70;;
21101;SDS011;10709;49.006;12.100;2023-02-22T07:10:16;15.37;;;11.00;;
21101;SDS011;10709;49.006;12.100;2023-02-22T07:12:47;18.17;;;11.27;;
21101;SDS011;10709;49.006;12.100;2023-02-22T07:15:14;17.63;;;11.73;;
21101;SDS011;10709;49.006;12.100;2023-02-22T07:17:43;16.77;;;11.00;;
21101;SDS011;10709;49.006;12.100;2023-02-22T07:20:10;47.67;;;14.30;;
21101;SDS011;10709;49.006;12.100;2023-02-22T07:22:37;35.63;;;14.37;;
21101;SDS011;10709;49.006;12.100;2023-02-22T07:25:07;19.63;;;13.87;;
21101;SDS011;10709;49.006;12.100;2023-02-22T07:27:37;31.23;;;12.30;;
21101;SDS011;10709;49.006;12.100;2023-02-22T07:30:05;16.70;;;10.70;;
21101;SDS011;10709;49.006;12.100;2023-02-22T07:32:32;61.80;;;13.37;;
21101;SDS011;10709;49.006;12.100;2023-02-22T07:34:59;16.90;;;10.83;;
21101;SDS011;10709;49.006;12.100;2023-02-22T07:37:27;19.93;;;11.30;;
21101;SDS011;10709;49.006;12.100;2023-02-22T07:39:55;31.53;;;12.07;;
21101;SDS011;10709;49.006;12.100;2023-02-22T07:42:21;22.90;;;10.50;;
21101;SDS011;10709;49.006;12.100;2023-02-22T07:44:47;18.50;;;10.10;;
21101;SDS011;10709;49.006;12.100;2023-02-22T07:47:14;20.63;;;11.00;;
21101;SDS011;10709;49.006;12.100;2023-02-22T07:49:40;26.43;;;11.33;;
21101;SDS011;10709;49.006;12.100;2023-02-22T07:52:08;23.77;;;9.80;;
21101;SDS011;10709;49.006;12.100;2023-02-22T07:54:34;45.00;;;11.50;;
21101;SDS011;10709;49.006;12.100;2023-02-22T07:57:00;19.33;;;10.77;;
21101;SDS011;10709;49.006;12.100;2023-02-22T07:59:28;33.60;;;10.77;;
21101;SDS011;10709;49.006;12.100;2023-02-22T08:01:54;67.13;;;15.17;;
21101;SDS011;10709;49.006;12.100;2023-02-22T08:04:21;40.00;;;12.37;;
21101;SDS011;10709;49.006;12.100;2023-02-22T08:06:47;20.67;;;10.83;;
21101;SDS011;10709;49.006;12.100;2023-02-22T08:09:15;44.90;;;11.67;;
21101;SDS011;10709;49.006;12.100;2023-02-22T08:11:41;19.67;;;10.47;;
21101;SDS011;10709;49.006;12.100;2023-02-22T08:14:08;16.27;;;10.50;;
21101;SDS011;10709;49.006;12.100;2023-02-22T08:16:34;17.60;;;11.10;;
21101;SDS011;10709;49.006;12.100;2023-02-22T08:19:00;19.03;;;11.97;;
21101;SDS011;10709;49.006;12.100;2023-02-22T08:21:27;38.63;;;13.47;;
21101;SDS011;10709;49.006;12.100;2023-02-22T08:23:53;23.67;;;13.27;;
21101;SDS011;10709;49.006;12.100;2023-02-22T08:26:21;16.70;;;11.30;;
21101;SDS011;10709;49.006;12.100;2023-02-22T08:28:48;26.87;;;13.00;;
21101;SDS011;10709;49.006;12.100;2023-02-22T08:31:15;19.90;;;12.50;;
21101;SDS011;10709;49.006;12.100;2023-02-22T08:33:42;19.90;;;12.10;;
21101;SDS011;10709;49.006;12.100;2023-02-22T08:36:08;20.10;;;11.47;;
21101;SDS011;10709;49.006;12.100;2023-02-22T08:38:35;35.43;;;13.30;;
21101;SDS011;10709;49.006;12.100;2023-02-22T08:41:02;29.67;;;12.10;;
21101;SDS011;10709;49.006;12.100;2023-02-22T08:43:29;25.47;;;12.63;;
21101;SDS011;10709;49.006;12.100;2023-02-22T08:45:56;16.50;;;10.87;;
21101;SDS011;10709;49.006;12.100;2023-02-22T08:48:23;17.27;;;10.87;;
21101;SDS011;10709;49.006;12.100;2023-02-22T08:50:49;20.03;;;12.90;;
21101;SDS011;10709;49.006;12.100;2023-02-22T08:53:16;19.67;;;12.30;;
21101;SDS011;10709;49.006;12.100;2023-02-22T08:55:43;23.97;;;14.90;;
21101;SDS011;10709;49.006;12.100;2023-02-22T08:58:10;23.17;;;14.07;;
21101;SDS011;10709;49.006;12.100;2023-02-22T09:00:38;20.97;;;13.80;;
21101;SDS011;10709;49.006;12.100;2023-02-22T09:03:09;18.23;;;12.77;;
21101;SDS011;10709;49.006;12.100;2023-02-22T09:05:38;21.77;;;14.13;;
21101;SDS011;10709;49.006;12.100;2023-02-22T09:08:05;19.77;;;12.97;;
21101;SDS011;10709;49.006;12.100;2023-02-22T09:10:32;19.43;;;13.30;;
21101;SDS011;10709;49.006;12.100;2023-02-22T09:12:59;18.97;;;13.60;;
21101;SDS011;10709;49.006;12.100;2023-02-22T09:15:27;23.90;;;14.37;;
21101;SDS011;10709;49.006;12.100;2023-02-22T09:17:55;19.90;;;13.90;;
21101;SDS011;10709;49.006;12.100;2023-02-22T09:20:22;19.70;;;14.73;;
21101;SDS011;10709;49.006;12.100;2023-02-22T09:22:49;19.57;;;14.27;;
21101;SDS011;10709;49.006;12.100;2023-02-22T09:25:16;21.60;;;14.80;;
21101;SDS011;10709;49.006;12.100;2023-02-22T09:27:46;20.23;;;13.87;;
21101;SDS011;10709;49.006;12.100;2023-02-22T09:30:15;21.13;;;14.00;;
21101;SDS011;10709;49.006;12.100;2023-02-22T09:32:43;22.03;;;14.57;;
21101;SDS011;10709;49.006;12.100;2023-02-22T09:35:10;18.60;;;13.00;;
21101;SDS011;10709;49.006;12.100;2023-02-22T09:37:38;19.43;;;14.17;;
21101;SDS011;10709;49.006;12.100;2023-02-22T09:40:04;20.43;;;13.60;;
21101;SDS011;10709;49.006;12.100;2023-02-22T09:42:38;18.37;;;13.43;;
21101;SDS011;10709;49.006;12.100;2023-02-22T09:45:13;19.67;;;13.40;;
21101;SDS011;10709;49.006;12.100;2023-02-22T09:48:05;18.03;;;13.43;;
21101;SDS011;10709;49.006;12.100;2023-02-22T09:50:46;18.90;;;13.10;;
21101;SDS011;10709;49.006;12.100;2023-02-22T09:56:02;20.20;;;14.03;;
21101;SDS011;10709;49.006;12.100;2023-02-22T09:58:37;20.90;;;14.40;;
21101;SDS011;10709;49.006;12.100;2023-02-22T10:01:12;19.53;;;13.53;;
21101;SDS011;10709;49.006;12.100;2023-02-22T10:03:50;19.13;;;14.40;;
21101;SDS011;10709;49.006;12.100;2023-02-22T10:06:25;19.27;;;14.17;;
21101;SDS011;10709;49.006;12.100;2023-02-22T10:08:54;17.67;;;13.73;;
21101;SDS011;10709;49.006;12.100;2023-02-22T10:11:34;18.83;;;13.80;;
21101;SDS011;10709;49.006;12.100;2023-02-22T10:17:31;18.97;;;12.87;;
21101;SDS011;10709;49.006;12.100;2023-02-22T10:25:29;12.40;;;8.43;;
21101;SDS011;10709;49.006;12.100;2023-02-22T10:28:15;11.67;;;8.33;;
21101;SDS011;10709;49.006;12.100;2023-02-22T10:30:46;11.43;;;8.90;;
21101;SDS011;10709;49.006;12.100;2023-02-22T10:33:41;11.57;;;9.57;;
21101;SDS011;10709;49.006;12.100;2023-02-22T10:36:19;11.60;;;8.50;;
21101;SDS011;10709;49.006;12.100;2023-02-22T10:39:33;12.73;;;9.43;;
21101;SDS011;10709;49.006;12.100;2023-02-22T10:42:00;12.60;;;10.17;;
21101;SDS011;10709;49.006;12.100;2023-02-22T10:44:34;15.53;;;10.50;;
21101;SDS011;10709;49.006;12.100;2023-02-22T10:47:02;13.63;;;10.67;;
21101;SDS011;10709;49.006;12.100;2023-02-22T10:49:39;13.03;;;10.57;;
21101;SDS011;10709;49.006;12.100;2023-02-22T10:52:41;13.50;;;10.63;;
21101;SDS011;10709;49.006;12.100;2023-02-22T10:55:00;15.53;;;11.17;;
21101;SDS011;10709;49.006;12.100;2023-02-22T10:57:41;14.30;;;10.97;;
21101;SDS011;10709;49.006;12.100;2023-02-22T11:00:19;15.10;;;11.33;;
21101;SDS011;10709;49.006;12.100;2023-02-22T11:05:26;12.33;;;10.13;;
21101;SDS011;10709;49.006;12.100;2023-02-22T11:10:55;12.47;;;10.00;;
21101;SDS011;10709;49.006;12.100;2023-02-22T11:13:29;14.27;;;10.33;;
21101;SDS011;10709;49.006;12.100;2023-02-22T11:16:18;12.27;;;9.83;;
21101;SDS011;10709;49.006;12.100;2023-02-22T11:19:01;12.27;;;9.93;;
21101;SDS011;10709;49.006;12.100;2023-02-22T11:21:34;14.57;;;10.70;;
21101;SDS011;10709;49.006;12.100;2023-02-22T11:24:04;17.03;;;10.50;;
21101;SDS011;10709;49.006;12.100;2023-02-22T11:26:40;12.83;;;10.17;;
21101;SDS011;10709;49.006;12.100;2023-02-22T11:29:11;14.83;;;10.00;;
21101;SDS011;10709;49.006;12.100;2023-02-22T11:31:44;10.90;;;8.80;;
21101;SDS011;10709;49.006;12.100;2023-02-22T11:34:31;12.90;;;9.37;;
21101;SDS011;10709;49.006;12.100;2023-02-22T11:37:41;11.90;;;9.20;;
21101;SDS011;10709;49.006;12.100;2023-02-22T11:42:32;11.40;;;9.33;;
21101;SDS011;10709;49.006;12.100;2023-02-22T11:45:09;10.20;;;9.10;;
21101;SDS011;10709;49.006;12.100;2023-02-22T11:47:48;13.57;;;9.60;;
21101;SDS011;10709;49.006;12.100;2023-02-22T11:53:37;13.73;;;9.13;;
21101;SDS011;10709;49.006;12.100;2023-02-22T11:56:17;10.83;;;9.27;;
21101;SDS011;10709;49.006;12.100;2023-02-22T12:01:43;11.53;;;8.63;;
21101;SDS011;10709;49.006;12.100;2023-02-22T12:13:00;13.13;;;9.63;;
21101;SDS011;10709;49.006;12.100;2023-02-22T12:15:51;12.33;;;8.70;;
21101;SDS011;10709;49.006;12.100;2023-02-22T12:21:01;11.57;;;8.40;;
21101;SDS011;10709;49.006;12.100;2023-02-22T12:26:32;15.67;;;9.63;;
21101;SDS011;10709;49.006;12.100;2023-02-22T12:31:43;11.20;;;8.97;;
21101;SDS011;10709;49.006;12.100;2023-02-22T12:36:46;11.47;;;8.83;;
21101;SDS011;10709;49.006;12.100;2023-02-22T12:42:27;11.37;;;9.20;;
21101;SDS011;10709;49.006;12.100;2023-02-22T12:45:13;11.57;;;8.93;;
21101;SDS011;10709;49.006;12.100;2023-02-22T12:47:57;10.97;;;7.87;;
21101;SDS011;10709;49.006;12.100;2023-02-22T12:50:32;11.17;;;8.37;;
21101;SDS011;10709;49.006;12.100;2023-02-22T12:53:03;9.70;;;7.77;;
21101;SDS011;10709;49.006;12.100;2023-02-22T12:58:20;10.10;;;8.10;;
21101;SDS011;10709;49.006;12.100;2023-02-22T13:00:56;9.70;;;7.90;;
21101;SDS011;10709;49.006;12.100;2023-02-22T13:03:37;11.37;;;7.90;;
21101;SDS011;10709;49.006;12.100;2023-02-22T13:08:59;10.30;;;8.10;;
21101;SDS011;10709;49.006;12.100;2023-02-22T13:20:14;11.20;;;7.53;;
21101;SDS011;10709;49.006;12.100;2023-02-22T13:23:25;9.73;;;7.77;;
21101;SDS011;10709;49.006;12.100;2023-02-22T13:28:38;11.73;;;8.63;;
21101;SDS011;10709;49.006;12.100;2023-02-22T13:42:42;11.37;;;7.97;;
21101;SDS011;10709;49.006;12.100;2023-02-22T13:51:05;12.00;;;8.30;;
21101;SDS011;10709;49.006;12.100;2023-02-22T13:53:41;12.20;;;8.33;;
21101;SDS011;10709;49.006;12.100;2023-02-22T13:56:14;9.43;;;7.73;;
21101;SDS011;10709;49.006;12.100;2023-02-22T13:58:51;12.93;;;7.90;;
21101;SDS011;10709;49.006;12.100;2023-02-22T14:04:31;11.77;;;8.63;;
21101;SDS011;10709;49.006;12.100;2023-02-22T14:09:47;14.40;;;7.83;;
21101;SDS011;10709;49.006;12.100;2023-02-22T14:17:58;9.90;;;7.47;;
21101;SDS011;10709;49.006;12.100;2023-02-22T14:20:31;11.20;;;8.57;;
21101;SDS011;10709;49.006;12.100;2023-02-22T14:25:55;8.37;;;6.90;;
21101;SDS011;10709;49.006;12.100;2023-02-22T14:28:36;10.17;;;7.23;;
21101;SDS011;10709;49.006;12.100;2023-02-22T14:31:09;11.87;;;7.97;;
21101;SDS011;10709;49.006;12.100;2023-02-22T14:34:09;8.40;;;6.50;;
21101;SDS011;10709;49.006;12.100;2023-02-22T14:36:58;9.73;;;7.10;;
21101;SDS011;10709;49.006;12.100;2023-02-22T14:39:37;8.27;;;6.93;;
21101;SDS011;10709;49.006;12.100;2023-02-22T14:42:10;8.10;;;6.53;;
21101;SDS011;10709;49.006;12.100;2023-02-22T14:44:40;8.50;;;5.70;;
21101;SDS011;10709;49.006;12.100;2023-02-22T14:47:16;8.70;;;6.43;;
21101;SDS011;10709;49.006;12.100;2023-02-22T14:49:46;10.17;;;6.37;;
21101;SDS011;10709;49.006;12.100;2023-02-22T14:52:21;10.40;;;6.17;;
21101;SDS011;10709;49.006;12.100;2023-02-22T14:54:56;9.30;;;6.07;;
21101;SDS011;10709;49.006;12.100;2023-02-22T15:00:42;7.87;;;5.43;;
21101;SDS011;10709;49.006;12.100;2023-02-22T15:05:43;6.77;;;5.20;;
21101;SDS011;10709;49.006;12.100;2023-02-22T15:08:11;6.80;;;4.60;;
21101;SDS011;10709;49.006;12.100;2023-02-22T15:10:44;10.63;;;4.90;;
21101;SDS011;10709;49.006;12.100;2023-02-22T15:13:13;9.30;;;4.90;;
21101;SDS011;10709;49.006;12.100;2023-02-22T15:15:44;10.23;;;4.90;;
21101;SDS011;10709;49.006;12.100;2023-02-22T15:18:17;6.90;;;4.97;;
21101;SDS011;10709;49.006;12.100;2023-02-22T15:20:47;6.37;;;4.80;;
21101;SDS011;10709;49.006;12.100;2023-02-22T15:23:22;6.43;;;4.87;;
21101;SDS011;10709;49.006;12.100;2023-02-22T15:25:51;5.87;;;3.97;;
21101;SDS011;10709;49.006;12.100;2023-02-22T15:28:27;6.17;;;4.00;;
21101;SDS011;10709;49.006;12.100;2023-02-22T15:33:49;5.97;;;3.40;;
21101;SDS011;10709;49.006;12.100;2023-02-22T15:36:23;5.80;;;3.80;;
21101;SDS011;10709;49.006;12.100;2023-02-22T15:38:52;6.10;;;4.17;;
21101;SDS011;10709;49.006;12.100;2023-02-22T15:41:24;9.60;;;4.13;;
21101;SDS011;10709;49.006;12.100;2023-02-22T15:44:04;9.63;;;4.00;;
21101;SDS011;10709;49.006;12.100;2023-02-22T15:46:48;8.00;;;4.00;;
21101;SDS011;10709;49.006;12.100;2023-02-22T15:49:17;7.43;;;3.80;;
21101;SDS011;10709;49.006;12.100;2023-02-22T15:51:46;7.67;;;4.13;;
21101;SDS011;10709;49.006;12.100;2023-02-22T15:54:26;8.10;;;4.53;;
21101;SDS011;10709;49.006;12.100;2023-02-22T15:56:53;7.77;;;4.43;;
21101;SDS011;10709;49.006;12.100;2023-02-22T15:59:21;5.80;;;4.07;;
21101;SDS011;10709;49.006;12.100;2023-02-22T16:01:54;6.43;;;4.47;;
21101;SDS011;10709;49.006;12.100;2023-02-22T16:04:25;5.40;;;3.90;;
21101;SDS011;10709;49.006;12.100;2023-02-22T16:07:07;5.87;;;4.10;;
21101;SDS011;10709;49.006;12.100;2023-02-22T16:09:46;7.80;;;4.00;;
21101;SDS011;10709;49.006;12.100;2023-02-22T16:14:47;8.70;;;4.00;;
21101;SDS011;10709;49.006;12.100;2023-02-22T16:19:53;6.20;;;4.10;;
21101;SDS011;10709;49.006;12.100;2023-02-22T16:24:52;6.10;;;3.80;;
21101;SDS011;10709;49.006;12.100;2023-02-22T16:27:21;6.73;;;3.80;;
21101;SDS011;10709;49.006;12.100;2023-02-22T16:30:06;7.70;;;3.63;;
21101;SDS011;10709;49.006;12.100;2023-02-22T16:32:50;7.63;;;4.00;;
21101;SDS011;10709;49.006;12.100;2023-02-22T16:35:18;5.63;;;3.83;;
21101;SDS011;10709;49.006;12.100;2023-02-22T16:38:01;4.83;;;3.27;;
21101;SDS011;10709;49.006;12.100;2023-02-22T16:40:31;6.33;;;3.90;;
21101;SDS011;10709;49.006;12.100;2023-02-22T16:43:03;5.93;;;3.70;;
21101;SDS011;10709;49.006;12.100;2023-02-22T16:45:32;8.00;;;3.97;;
21101;SDS011;10709;49.006;12.100;2023-02-22T16:47:59;10.30;;;3.97;;
21101;SDS011;10709;49.006;12.100;2023-02-22T16:50:25;7.47;;;4.50;;
21101;SDS011;10709;49.006;12.100;2023-02-22T16:52:52;5.90;;;4.50;;
21101;SDS011;10709;49.006;12.100;2023-02-22T16:55:20;8.07;;;4.40;;
21101;SDS011;10709;49.006;12.100;2023-02-22T16:57:47;8.40;;;5.47;;
21101;SDS011;10709;49.006;12.100;2023-02-22T17:00:23;7.87;;;5.33;;
21101;SDS011;10709;49.006;12.100;2023-02-22T17:02:57;10.80;;;5.00;;
21101;SDS011;10709;49.006;12.100;2023-02-22T17:05:25;9.17;;;5.43;;
21101;SDS011;10709;49.006;12.100;2023-02-22T17:07:51;8.53;;;4.90;;
21101;SDS011;10709;49.006;12.100;2023-02-22T17:10:18;10.30;;;5.47;;
21101;SDS011;10709;49.006;12.100;2023-02-22T17:12:45;10.90;;;6.60;;